createdAt,value
2024-01-20T00:00:58.128Z,100992.91
2024-01-20T00:03:25.094Z,100998.61
2024-01-20T00:05:52.129Z,100999.83
2024-01-20T00:08:19.336Z,100996.87
2024-01-20T00:10:46.341Z,100990.98
2024-01-20T00:13:13.434Z,100997.38
2024-01-20T00:15:40.518Z,101001.88
2024-01-20T00:18:08.529Z,101005.52
2024-01-20T00:20:35.638Z,101009.67
2024-01-20T00:23:05.260Z,101013.32
2024-01-20T00:25:32.325Z,101011.60
2024-01-20T00:27:59.639Z,101011.77
2024-01-20T00:30:26.531Z,101016.77
2024-01-20T00:32:53.460Z,101017.30
2024-01-20T00:35:21.119Z,101017.12
2024-01-20T00:37:48.295Z,101017.46
2024-01-20T00:40:15.514Z,101018.49
2024-01-20T00:42:42.508Z,101021.09
2024-01-20T00:45:10.038Z,101017.10
2024-01-20T00:47:39.531Z,101017.80
2024-01-20T00:50:07.734Z,101017.10
2024-01-20T00:52:34.722Z,101012.96
2024-01-20T00:55:01.729Z,101011.41
2024-01-20T00:57:28.788Z,101009.68
2024-01-20T00:59:57.064Z,101010.90
2024-01-20T01:02:26.915Z,101011.42
2024-01-20T01:04:53.954Z,101012.29
2024-01-20T01:07:21.293Z,101005.89
2024-01-20T01:09:49.697Z,101006.61
2024-01-20T01:12:16.732Z,101008.67
2024-01-20T01:14:43.741Z,101011.09
2024-01-20T01:17:11.205Z,101011.26
2024-01-20T01:19:38.679Z,101015.23
2024-01-20T01:22:06.109Z,101022.18
2024-01-20T01:24:33.026Z,101020.45
2024-01-20T01:27:00.003Z,101026.18
2024-01-20T01:29:27.494Z,101022.88
2024-01-20T01:31:55.269Z,101020.80
2024-01-20T01:34:22.300Z,101018.39
2024-01-20T01:36:50.127Z,101017.36
2024-01-20T01:39:19.328Z,101020.98
2024-01-20T01:41:46.696Z,101024.80
2024-01-20T01:44:14.221Z,101026.36
2024-01-20T01:46:41.656Z,101025.33
2024-01-20T01:49:09.184Z,101023.23
2024-01-20T01:51:36.455Z,101017.70
2024-01-20T01:54:04.842Z,101017.52
2024-01-20T01:56:32.378Z,101018.40
2024-01-20T01:59:00.185Z,101019.10
2024-01-20T02:01:27.611Z,101014.77
2024-01-20T02:03:54.791Z,101013.20
2024-01-20T02:06:22.313Z,101011.13
2024-01-20T02:08:49.555Z,101019.95
2024-01-20T02:11:16.930Z,101019.60
2024-01-20T02:13:44.038Z,101013.03
2024-01-20T02:16:11.152Z,101014.92
2024-01-20T02:18:38.247Z,101010.60
2024-01-20T02:21:08.703Z,101009.73
2024-01-20T02:23:42.339Z,101005.91
2024-01-20T02:26:09.808Z,101000.38
2024-01-20T02:28:36.721Z,100998.14
2024-01-20T02:31:06.568Z,100997.09
2024-01-20T02:33:33.710Z,100989.14
2024-01-20T02:36:01.289Z,100984.65
2024-01-20T02:38:28.549Z,100983.61
2024-01-20T02:40:55.466Z,100983.10
2024-01-20T02:43:22.585Z,100985.69
2024-01-20T02:45:49.600Z,100984.13
2024-01-20T02:48:18.777Z,100975.13
2024-01-20T02:50:46.212Z,100975.48
2024-01-20T02:53:13.340Z,100981.53
2024-01-20T02:55:40.371Z,100983.79
2024-01-20T02:58:07.548Z,100988.30
2024-01-20T03:00:34.528Z,100986.74
2024-01-20T03:03:01.912Z,100984.14
2024-01-20T03:05:29.156Z,100986.21
2024-01-20T03:07:56.263Z,100979.46
2024-01-20T03:10:23.314Z,100977.73
2024-01-20T03:12:50.879Z,100977.91
2024-01-20T03:15:18.287Z,100973.77
2024-01-20T03:17:45.451Z,100977.41
2024-01-20T03:20:12.859Z,100972.23
2024-01-20T03:22:39.813Z,100972.39
2024-01-20T03:25:07.455Z,100969.79
2024-01-20T03:27:34.457Z,100967.88
2024-01-20T03:30:01.467Z,100962.52
2024-01-20T03:32:28.565Z,100959.90
2024-01-20T03:34:55.638Z,100960.27
2024-01-20T03:37:22.642Z,100958.52
2024-01-20T03:39:49.512Z,100949.89
2024-01-20T03:42:16.421Z,100949.71
2024-01-20T03:44:43.333Z,100949.37
2024-01-20T03:47:10.340Z,100947.46
2024-01-20T03:49:37.347Z,100947.30
2024-01-20T03:52:05.932Z,100946.95
2024-01-20T03:54:33.059Z,100951.80
2024-01-20T03:57:00.151Z,100954.75
2024-01-20T03:59:27.254Z,100962.72
2024-01-20T04:01:54.213Z,100965.85
2024-01-20T04:04:21.816Z,100971.90
2024-01-20T04:06:48.857Z,100976.76
2024-01-20T04:09:15.979Z,100981.25
2024-01-20T04:11:43.021Z,100977.63
2024-01-20T04:14:10.081Z,100977.45
2024-01-20T04:16:38.066Z,100977.11
2024-01-20T04:19:05.170Z,100978.66
2024-01-20T04:21:32.291Z,100976.40
2024-01-20T04:23:59.167Z,100976.07
2024-01-20T04:26:26.420Z,100973.64
2024-01-20T04:28:53.447Z,100972.95
2024-01-20T04:31:20.374Z,100970.02
2024-01-20T04:33:47.306Z,100972.27
2024-01-20T04:36:14.431Z,100969.33
2024-01-20T04:38:41.531Z,100959.81
2024-01-20T04:41:08.730Z,100963.11
2024-01-20T04:43:35.559Z,100967.08
2024-01-20T04:46:02.800Z,100963.96
2024-01-20T04:48:30.164Z,100964.83
2024-01-20T04:50:57.123Z,100965.69
2024-01-20T04:53:24.154Z,100958.77
2024-01-20T04:55:51.411Z,100961.02
2024-01-20T04:58:18.567Z,100958.59
2024-01-20T05:00:46.450Z,100957.02
2024-01-20T05:03:13.591Z,100952.89
2024-01-20T05:05:41.011Z,100953.06
2024-01-20T05:08:08.212Z,100948.58
2024-01-20T05:10:35.260Z,100948.56
2024-01-20T05:13:05.114Z,100951.16
2024-01-20T05:15:33.490Z,100947.19
2024-01-20T05:18:00.917Z,100948.05
2024-01-20T05:20:27.999Z,100944.73
2024-01-20T05:22:54.886Z,100940.25
2024-01-20T05:25:21.776Z,100936.98
2024-01-20T05:27:48.930Z,100927.65
2024-01-20T05:30:16.014Z,100922.98
2024-01-20T05:32:43.587Z,100915.55
2024-01-20T05:35:10.701Z,100912.09
2024-01-20T05:37:37.636Z,100912.27
2024-01-20T05:40:06.487Z,100908.11
2024-01-20T05:42:33.480Z,100899.30
2024-01-20T05:45:01.516Z,100895.48
2024-01-20T05:47:28.527Z,100885.13
2024-01-20T05:49:55.450Z,100883.40
2024-01-20T05:52:22.528Z,100886.84
2024-01-20T05:54:49.518Z,100885.44
2024-01-20T05:57:16.564Z,100886.82
2024-01-20T05:59:43.501Z,100888.73
2024-01-20T06:02:10.550Z,100892.87
2024-01-20T06:04:37.393Z,100896.67
2024-01-20T06:07:04.649Z,100894.26
2024-01-20T06:09:31.572Z,100890.63
2024-01-20T06:11:58.661Z,100887.35
2024-01-20T06:14:25.610Z,100889.43
2024-01-20T06:16:52.663Z,100891.00
2024-01-20T06:19:19.651Z,100894.45
2024-01-20T06:21:46.877Z,100897.55
2024-01-20T06:24:13.849Z,100893.07
2024-01-20T06:26:40.814Z,100891.69
2024-01-20T06:29:07.831Z,100882.35
2024-01-20T06:31:34.815Z,100875.27
2024-01-20T06:34:02.213Z,100873.20
2024-01-20T06:36:29.476Z,100866.80
2024-01-20T06:38:56.797Z,100859.54
2024-01-20T06:41:24.118Z,100856.42
2024-01-20T06:43:51.372Z,100857.12
2024-01-20T06:46:18.428Z,100863.17
2024-01-20T06:48:45.617Z,100859.54
2024-01-20T06:51:16.995Z,100851.23
2024-01-20T06:53:45.236Z,100854.88
2024-01-20T06:56:12.768Z,100864.20
2024-01-20T06:58:40.762Z,100861.79
2024-01-20T07:01:08.573Z,100855.56
2024-01-20T07:03:35.955Z,100854.01
2024-01-20T07:06:04.000Z,100850.56
2024-01-20T07:08:31.623Z,100855.23
2024-01-20T07:10:58.488Z,100852.30
2024-01-20T07:13:25.350Z,100847.45
2024-01-20T07:15:52.577Z,100838.45
2024-01-20T07:18:19.717Z,100827.06
2024-01-20T07:20:46.728Z,100822.05
2024-01-20T07:23:13.839Z,100816.52
2024-01-20T07:25:41.039Z,100804.60
2024-01-20T07:28:08.007Z,100808.23
2024-01-20T07:30:35.412Z,100813.59
2024-01-20T07:33:02.513Z,100824.30
2024-01-20T07:35:29.631Z,100825.85
2024-01-20T07:37:56.489Z,100823.44
2024-01-20T07:40:23.775Z,100819.64
2024-01-20T07:42:51.196Z,100815.84
2024-01-20T07:45:18.324Z,100810.48
2024-01-20T07:47:46.494Z,100800.63
2024-01-20T07:50:13.440Z,100795.96
2024-01-20T07:52:40.829Z,100793.37
2024-01-20T07:55:08.714Z,100789.58
2024-01-20T07:57:36.010Z,100781.45
2024-01-20T08:00:03.927Z,100766.94
2024-01-20T08:02:35.111Z,100762.44
2024-01-20T08:05:02.203Z,100762.98
2024-01-20T08:07:29.205Z,100776.98
2024-01-20T08:09:56.361Z,100780.77
2024-01-20T08:12:23.558Z,100777.14
2024-01-20T08:14:50.575Z,100778.00
2024-01-20T08:17:18.339Z,100779.55
2024-01-20T08:19:46.972Z,100784.73
2024-01-20T08:22:15.002Z,100786.46
2024-01-20T08:24:42.170Z,100785.95
2024-01-20T08:27:09.312Z,100786.64
2024-01-20T08:29:37.079Z,100780.77
2024-01-20T08:32:04.629Z,100785.09
2024-01-20T08:34:31.910Z,100789.23
2024-01-20T08:36:59.273Z,100785.08
2024-01-20T08:39:26.313Z,100785.94
2024-01-20T08:41:53.891Z,100787.49
2024-01-20T08:44:21.029Z,100787.14
2024-01-20T08:46:49.140Z,100787.33
2024-01-20T08:49:16.733Z,100787.15
2024-01-20T08:51:43.820Z,100785.77
2024-01-20T08:54:10.823Z,100788.38
2024-01-20T08:56:38.033Z,100784.04
2024-01-20T08:59:05.083Z,100779.55
2024-01-20T09:01:32.168Z,100776.61
2024-01-20T09:04:02.325Z,100774.19
2024-01-20T09:06:30.747Z,100770.05
2024-01-20T09:08:57.988Z,100768.14
2024-01-20T09:11:24.994Z,100771.76
2024-01-20T09:13:53.033Z,100769.00
2024-01-20T09:16:20.313Z,100771.41
2024-01-20T09:18:47.568Z,100766.22
2024-01-20T09:21:14.932Z,100763.10
2024-01-20T09:23:42.084Z,100758.77
2024-01-20T09:26:09.317Z,100752.04
2024-01-20T09:28:36.184Z,100753.42
2024-01-20T09:31:04.623Z,100752.05
2024-01-20T09:33:35.917Z,100748.25
2024-01-20T09:36:04.583Z,100739.61
2024-01-20T09:38:32.039Z,100742.70
2024-01-20T09:40:59.736Z,100740.27
2024-01-20T09:43:27.372Z,100738.36
2024-01-20T09:45:55.142Z,100738.20
2024-01-20T09:48:22.698Z,100735.09
2024-01-20T09:50:50.678Z,100735.62
2024-01-20T09:53:18.924Z,100729.56
2024-01-20T09:55:47.294Z,100729.21
2024-01-20T09:58:17.201Z,100732.48
2024-01-20T10:00:44.706Z,100732.98
2024-01-20T10:03:12.980Z,100735.05
2024-01-20T10:05:40.104Z,100738.68
2024-01-20T10:08:07.593Z,100738.49
2024-01-20T10:10:35.179Z,100736.42
2024-01-20T10:13:02.749Z,100734.16
2024-01-20T10:15:35.362Z,100732.39
2024-01-20T10:18:12.545Z,100732.75
2024-01-20T10:20:40.011Z,100730.83
2024-01-20T10:23:08.871Z,100729.27
2024-01-20T10:25:36.030Z,100731.16
2024-01-20T10:28:03.330Z,100731.68
2024-01-20T10:30:31.590Z,100726.99
2024-01-20T10:33:09.618Z,100729.73
2024-01-20T10:35:39.105Z,100727.63
2024-01-20T10:38:17.977Z,100731.23
2024-01-20T10:40:46.691Z,100727.73
2024-01-20T10:43:17.327Z,100732.38
2024-01-20T10:45:48.503Z,100732.36
2024-01-20T10:48:29.545Z,100735.09
2024-01-20T10:51:00.034Z,100730.86
2024-01-20T10:53:28.258Z,100727.30
2024-01-20T10:55:56.349Z,100728.58
2024-01-20T10:58:33.252Z,100728.48
2024-01-20T11:01:00.697Z,100730.82
2024-01-20T11:03:28.484Z,100747.94
2024-01-20T11:05:55.554Z,100768.70
2024-01-20T11:08:27.471Z,100784.53
2024-01-20T11:10:56.522Z,100790.89
2024-01-20T11:13:27.771Z,100790.44
2024-01-20T11:15:56.681Z,100793.23
2024-01-20T11:18:26.556Z,100801.37
2024-01-20T11:21:04.229Z,100815.58
2024-01-20T11:23:31.797Z,100823.59
2024-01-20T11:26:10.687Z,100833.50
2024-01-20T11:28:38.079Z,100841.30
2024-01-20T11:31:05.152Z,100839.23
2024-01-20T11:33:33.264Z,100840.10
2024-01-20T11:36:02.171Z,100844.60
2024-01-20T11:38:30.200Z,100850.98
2024-01-20T11:41:03.591Z,100852.70
2024-01-20T11:43:31.112Z,100848.84
2024-01-20T11:45:58.564Z,100846.73
2024-01-20T11:48:27.032Z,100856.33
2024-01-20T11:50:55.283Z,100858.65
2024-01-20T11:53:23.720Z,100864.61
2024-01-20T11:55:55.972Z,100880.64
2024-01-20T11:58:23.835Z,100900.71
2024-01-20T12:00:53.315Z,100909.00
2024-01-20T12:03:23.312Z,100918.83
2024-01-20T12:05:51.646Z,100928.85
2024-01-20T12:08:19.034Z,100938.52
2024-01-20T12:10:50.553Z,100946.17
2024-01-20T12:13:18.656Z,100952.81
2024-01-20T12:15:47.800Z,100965.70
2024-01-20T12:18:16.638Z,100970.30
2024-01-20T12:20:45.361Z,100971.43
2024-01-20T12:23:18.416Z,100981.34
2024-01-20T12:25:45.352Z,100984.16
2024-01-20T12:28:12.288Z,100996.48
2024-01-20T12:30:39.327Z,101002.92
2024-01-20T12:33:06.457Z,101010.91
2024-01-20T12:35:33.807Z,101015.24
2024-01-20T12:38:00.654Z,101014.52
2024-01-20T12:40:27.971Z,101017.45
2024-01-20T12:42:55.332Z,101029.92
2024-01-20T12:45:22.301Z,101039.61
2024-01-20T12:47:50.702Z,101045.84
2024-01-20T12:50:17.823Z,101054.31
2024-01-20T12:52:45.514Z,101069.73
2024-01-20T12:55:12.416Z,101081.70
2024-01-20T12:57:40.034Z,101093.31
2024-01-20T13:00:07.666Z,101101.66
2024-01-20T13:02:34.517Z,101112.73
2024-01-20T13:05:01.465Z,101120.19
2024-01-20T13:07:28.400Z,101132.86
2024-01-20T13:09:55.535Z,101135.61
2024-01-20T13:12:22.521Z,101140.98
2024-01-20T13:14:49.422Z,101142.88
2024-01-20T13:17:16.475Z,101148.95
2024-01-20T13:19:43.409Z,101157.61
2024-01-20T13:22:13.434Z,101166.96
2024-01-20T13:24:40.435Z,101180.63
2024-01-20T13:27:07.711Z,101184.96
2024-01-20T13:29:34.874Z,101187.73
2024-01-20T13:32:02.529Z,101188.41
2024-01-20T13:34:29.534Z,101190.66
2024-01-20T13:36:56.438Z,101195.67
2024-01-20T13:39:23.267Z,101200.86
2024-01-20T13:41:51.933Z,101199.30
2024-01-20T13:44:19.085Z,101206.91
2024-01-20T13:46:46.061Z,101208.11
2024-01-20T13:49:13.599Z,101223.34
2024-01-20T13:51:41.084Z,101236.48
2024-01-20T13:54:08.107Z,101246.85
2024-01-20T13:56:34.988Z,101257.56
2024-01-20T13:59:03.930Z,101265.70
2024-01-20T14:01:31.153Z,101269.00
2024-01-20T14:03:58.944Z,101279.40
2024-01-20T14:06:26.903Z,101294.27
2024-01-20T14:08:53.844Z,101304.27
2024-01-20T14:11:20.708Z,101316.00
2024-01-20T14:13:47.542Z,101314.07
2024-01-20T14:16:14.571Z,101317.33
2024-01-20T14:18:41.544Z,101330.27
2024-01-20T14:21:09.045Z,101341.30
2024-01-20T14:23:36.684Z,101348.54
2024-01-20T14:26:03.548Z,101354.88
2024-01-20T14:28:30.793Z,101372.50
2024-01-20T14:30:57.705Z,101384.40
2024-01-20T14:33:24.701Z,101397.72
2024-01-20T14:35:51.542Z,101403.60
2024-01-20T14:38:18.596Z,101416.56
2024-01-20T14:40:45.441Z,101427.29
2024-01-20T14:43:12.364Z,101444.21
2024-01-20T14:45:39.222Z,101459.22
2024-01-20T14:48:07.926Z,101472.50
2024-01-20T14:50:35.100Z,101490.08
2024-01-20T14:53:02.344Z,101503.88
2024-01-20T14:55:31.675Z,101515.12
2024-01-20T14:57:58.786Z,101519.80
2024-01-20T15:00:25.789Z,101525.53
2024-01-20T15:02:52.649Z,101530.72
2024-01-20T15:05:19.972Z,101539.36
2024-01-20T15:07:46.906Z,101547.43
2024-01-20T15:10:13.872Z,101557.61
2024-01-20T15:12:40.895Z,101568.48
2024-01-20T15:15:08.560Z,101580.72
2024-01-20T15:17:35.391Z,101588.99
2024-01-20T15:20:02.391Z,101593.48
2024-01-20T15:22:29.331Z,101601.96
2024-01-20T15:24:56.511Z,101615.46
2024-01-20T15:27:23.608Z,101619.49
2024-01-20T15:29:50.782Z,101628.67
2024-01-20T15:32:17.863Z,101637.67
2024-01-20T15:34:44.842Z,101646.67
2024-01-20T15:37:11.761Z,101652.70
2024-01-20T15:39:38.657Z,101667.48
2024-01-20T15:42:05.691Z,101673.13
2024-01-20T15:44:32.813Z,101676.42
2024-01-20T15:46:59.775Z,101679.04
2024-01-20T15:49:27.054Z,101679.27
2024-01-20T15:51:54.314Z,101682.25
2024-01-20T15:54:21.270Z,101690.43
2024-01-20T15:56:48.384Z,101700.48
2024-01-20T15:59:15.443Z,101708.11
2024-01-20T16:01:42.370Z,101716.04
2024-01-20T16:04:09.668Z,101726.94
2024-01-20T16:06:38.183Z,101742.81
2024-01-20T16:09:06.382Z,101754.73
2024-01-20T16:11:33.576Z,101754.02
2024-01-20T16:14:00.724Z,101759.33
2024-01-20T16:16:27.674Z,101766.88
2024-01-20T16:18:54.659Z,101778.60
2024-01-20T16:21:23.639Z,101781.12
2024-01-20T16:23:51.626Z,101789.20
2024-01-20T16:26:22.529Z,101792.10
2024-01-20T16:28:50.480Z,101795.71
2024-01-20T16:31:18.181Z,101802.28
2024-01-20T16:33:46.200Z,101814.75
2024-01-20T16:36:25.478Z,101823.46
2024-01-20T16:38:52.638Z,101830.95
2024-01-20T16:41:19.690Z,101831.44
2024-01-20T16:43:46.558Z,101830.89
2024-01-20T16:46:13.492Z,101827.74
2024-01-20T16:48:40.638Z,101827.68
2024-01-20T16:51:15.047Z,101833.51
2024-01-20T16:53:49.285Z,101834.01
2024-01-20T16:56:16.445Z,101840.56
2024-01-20T16:58:43.395Z,101853.16
2024-01-20T17:01:10.542Z,101858.29
2024-01-20T17:03:37.589Z,101866.89
2024-01-20T17:06:04.677Z,101872.52
2024-01-20T17:08:31.653Z,101883.45
2024-01-20T17:10:58.705Z,101888.00
2024-01-20T17:13:25.716Z,101901.16
2024-01-20T17:15:52.669Z,101907.08
2024-01-20T17:18:19.907Z,101910.17
2024-01-20T17:20:47.095Z,101917.08
2024-01-20T17:23:14.044Z,101927.80
2024-01-20T17:25:40.822Z,101939.90
2024-01-20T17:28:08.173Z,101943.83
2024-01-20T17:30:35.161Z,101944.96
2024-01-20T17:33:02.346Z,101937.86
2024-01-20T17:35:29.337Z,101940.49
2024-01-20T17:37:57.477Z,101938.15
2024-01-20T17:40:24.638Z,101951.85
2024-01-20T17:42:51.660Z,101956.68
2024-01-20T17:45:18.626Z,101964.66
2024-01-20T17:47:47.432Z,101966.66
2024-01-20T17:50:14.958Z,101978.65
2024-01-20T17:52:42.207Z,101990.83
2024-01-20T17:55:09.505Z,101999.74
2024-01-20T17:57:36.754Z,101998.15
2024-01-20T18:00:05.316Z,102002.41
2024-01-20T18:02:38.488Z,102002.84
2024-01-20T18:05:05.904Z,102008.15
2024-01-20T18:07:33.161Z,102017.98
2024-01-20T18:10:00.223Z,102027.79
2024-01-20T18:12:27.330Z,102042.39
2024-01-20T18:14:54.927Z,102055.17
2024-01-20T18:17:21.929Z,102060.23
2024-01-20T18:19:48.964Z,102069.66
2024-01-20T18:22:16.098Z,102078.95
2024-01-20T18:24:43.008Z,102082.95
2024-01-20T18:27:10.177Z,102082.83
2024-01-20T18:29:37.494Z,102097.39
2024-01-20T18:32:04.817Z,102107.00
2024-01-20T18:34:32.216Z,102111.91
2024-01-20T18:36:59.225Z,102121.29
2024-01-20T18:39:26.229Z,102130.14
2024-01-20T18:41:53.228Z,102136.81
2024-01-20T18:44:20.391Z,102141.68
2024-01-20T18:46:47.540Z,102146.62
2024-01-20T18:49:14.551Z,102154.19
2024-01-20T18:51:41.823Z,102163.29
2024-01-20T18:54:08.939Z,102174.14
2024-01-20T18:56:36.108Z,102181.73
2024-01-20T18:59:03.105Z,102182.07
2024-01-20T19:01:30.386Z,102180.80
2024-01-20T19:03:57.562Z,102183.14
2024-01-20T19:06:29.507Z,102181.63
2024-01-20T19:08:56.770Z,102185.40
2024-01-20T19:11:24.736Z,102190.62
2024-01-20T19:13:51.986Z,102202.56
2024-01-20T19:16:18.930Z,102213.63
2024-01-20T19:18:46.256Z,102220.63
2024-01-20T19:21:13.337Z,102236.02
2024-01-20T19:23:44.982Z,102240.16
2024-01-20T19:26:12.476Z,102247.80
2024-01-20T19:28:40.176Z,102253.06
2024-01-20T19:31:08.025Z,102251.67
2024-01-20T19:33:35.256Z,102253.80
2024-01-20T19:36:02.542Z,102256.19
2024-01-20T19:38:29.677Z,102256.45
2024-01-20T19:40:57.244Z,102260.46
2024-01-20T19:43:24.349Z,102261.52
2024-01-20T19:45:51.261Z,102266.52
2024-01-20T19:48:18.614Z,102270.17
2024-01-20T19:50:47.236Z,102278.05
2024-01-20T19:53:14.245Z,102285.96
2024-01-20T19:55:41.816Z,102294.04
2024-01-20T19:58:09.297Z,102297.90
2024-01-20T20:00:36.600Z,102301.58
2024-01-20T20:03:04.228Z,102298.65
2024-01-20T20:05:32.447Z,102298.46
2024-01-20T20:08:00.757Z,102300.42
2024-01-20T20:10:30.809Z,102304.17
2024-01-20T20:12:58.038Z,102311.55
2024-01-20T20:15:25.912Z,102315.44
2024-01-20T20:17:52.962Z,102314.94
2024-01-20T20:20:23.134Z,102317.52
2024-01-20T20:22:50.554Z,102322.31
2024-01-20T20:25:18.009Z,102329.11
2024-01-20T20:27:45.021Z,102330.70
2024-01-20T20:30:12.251Z,102336.68
2024-01-20T20:32:40.966Z,102342.88
2024-01-20T20:35:08.682Z,102348.17
2024-01-20T20:37:35.570Z,102348.11
2024-01-20T20:40:02.993Z,102349.38
2024-01-20T20:42:30.106Z,102350.11
2024-01-20T20:44:57.276Z,102356.66
2024-01-20T20:47:24.146Z,102356.11
2024-01-20T20:49:51.962Z,102363.48
2024-01-20T20:52:19.186Z,102368.71
2024-01-20T20:54:46.299Z,102366.47
2024-01-20T20:57:13.668Z,102367.14
2024-01-20T20:59:44.532Z,102370.23
2024-01-20T21:02:12.402Z,102376.74
2024-01-20T21:04:39.465Z,102380.45
2024-01-20T21:07:08.135Z,102388.29
2024-01-20T21:09:35.280Z,102391.08
2024-01-20T21:12:02.598Z,102393.20
2024-01-20T21:14:29.541Z,102402.05
2024-01-20T21:16:56.576Z,102404.56
2024-01-20T21:19:23.932Z,102409.59
2024-01-20T21:21:51.069Z,102413.85
2024-01-20T21:24:18.628Z,102415.88
2024-01-20T21:26:45.564Z,102420.63
2024-01-20T21:29:12.649Z,102423.77
2024-01-20T21:31:39.568Z,102422.38
2024-01-20T21:34:06.529Z,102429.23
2024-01-20T21:36:33.933Z,102435.14
2024-01-20T21:39:07.272Z,102435.64
2024-01-20T21:41:34.472Z,102441.73
2024-01-20T21:44:04.479Z,102445.20
2024-01-20T21:46:31.740Z,102456.43
2024-01-20T21:48:58.791Z,102460.67
2024-01-20T21:51:25.925Z,102455.47
2024-01-20T21:53:53.002Z,102468.10
2024-01-20T21:56:20.673Z,102466.80
2024-01-20T21:58:47.827Z,102470.88
2024-01-20T22:01:15.209Z,102472.40
2024-01-20T22:03:42.300Z,102474.27
2024-01-20T22:06:09.419Z,102478.58
2024-01-20T22:08:36.408Z,102485.85
2024-01-20T22:11:06.161Z,102494.16
2024-01-20T22:13:33.333Z,102496.17
2024-01-20T22:16:00.505Z,102501.52
2024-01-20T22:18:28.337Z,102506.96
2024-01-20T22:20:57.283Z,102509.83
2024-01-20T22:23:24.390Z,102513.38
2024-01-20T22:25:51.310Z,102521.58
2024-01-20T22:28:18.601Z,102520.05
2024-01-20T22:30:45.922Z,102521.23
2024-01-20T22:33:13.242Z,102519.14
2024-01-20T22:35:40.389Z,102525.19
2024-01-20T22:38:07.936Z,102532.14
2024-01-20T22:40:34.933Z,102536.67
2024-01-20T22:43:01.940Z,102544.39
2024-01-20T22:45:29.223Z,102553.84
2024-01-20T22:47:56.379Z,102556.71
2024-01-20T22:50:23.607Z,102559.66
2024-01-20T22:52:50.980Z,102559.14
2024-01-20T22:55:18.473Z,102560.65
2024-01-20T22:57:45.863Z,102561.86
2024-01-20T23:00:14.190Z,102561.05
2024-01-20T23:02:42.874Z,102561.36
2024-01-20T23:05:10.462Z,102560.86
2024-01-20T23:07:39.188Z,102563.86
2024-01-20T23:10:06.895Z,102568.27
2024-01-20T23:12:34.035Z,102565.41
2024-01-20T23:15:01.050Z,102567.51
2024-01-20T23:17:28.274Z,102569.95
2024-01-20T23:19:55.150Z,102569.17
2024-01-20T23:22:23.021Z,102571.52
2024-01-20T23:24:50.025Z,102575.05
2024-01-20T23:27:17.545Z,102571.20
2024-01-20T23:29:44.755Z,102572.18
2024-01-20T23:32:12.157Z,102572.59
2024-01-20T23:34:39.418Z,102575.09
2024-01-20T23:37:06.547Z,102579.42
2024-01-20T23:39:33.450Z,102581.02
2024-01-20T23:42:00.423Z,102582.85
2024-01-20T23:44:27.679Z,102586.39
2024-01-20T23:46:55.963Z,102586.59
2024-01-20T23:49:23.119Z,102586.79
2024-01-20T23:51:50.223Z,102584.71
2024-01-20T23:54:17.430Z,102586.77
2024-01-20T23:56:44.484Z,102586.68
2024-01-20T23:59:11.642Z,102589.67
